Terminal Aerodrome Forecast
Issued by NWS Charleston, WV

Current Version | Previous Version | Graphics & Text | Print | Product List | Glossary On
Versions: 1 2 3 4 5 6 7 8 9 10 11 12 13 14 15 16 17 18 19
000
FTUS41 KRLX 011510 AAA
TAFPKB
TAF AMD
KPKB 011510Z 0115/0212 21007KT P6SM BKN017 BKN022 OVC040
     FM011900 24005KT 5SM -SHRA VCTS BKN030CB
     FM012100 25005KT 2SM SHRA VCTS BKN030CB
     FM012300 VRB03KT 5SM -SHRA VCTS BKN030CB
     FM020100 VRB03KT P6SM -SHRA VCTS BKN040CB=

USA.gov is the U.S. government's official web portal to all federal, state and local government web resources and services.